createdAt,value
2022-09-17T00:00:01.451Z,985.14
2022-09-17T00:01:01.363Z,985.13
2022-09-17T00:02:01.816Z,985.11
2022-09-17T00:03:02.665Z,985.10
2022-09-17T00:04:00.751Z,985.15
2022-09-17T00:04:27.831Z,985.15
2022-09-17T00:05:27.779Z,985.16
2022-09-17T00:06:27.795Z,985.12
2022-09-17T00:07:27.876Z,985.10
2022-09-17T00:08:27.797Z,985.14
2022-09-17T00:09:27.837Z,985.15
2022-09-17T00:11:00.140Z,985.15
2022-09-17T00:11:28.902Z,985.13
2022-09-17T00:13:02.979Z,985.11
2022-09-17T00:13:28.335Z,985.18
2022-09-17T00:15:01.467Z,985.21
2022-09-17T00:15:27.664Z,985.20
2022-09-17T00:16:27.728Z,985.20
2022-09-17T00:17:27.649Z,985.32
2022-09-17T00:18:27.662Z,985.28
2022-09-17T00:19:27.632Z,985.29
2022-09-17T00:20:27.624Z,985.25
2022-09-17T00:21:27.617Z,985.32
2022-09-17T00:22:27.607Z,985.29
2022-09-17T00:23:27.588Z,985.31
2022-09-17T00:24:27.576Z,985.32
2022-09-17T00:25:27.711Z,985.29
2022-09-17T00:26:27.646Z,985.33
2022-09-17T00:27:27.572Z,985.40
2022-09-17T00:28:27.580Z,985.28
2022-09-17T00:29:27.713Z,985.38
2022-09-17T00:30:27.532Z,985.29
2022-09-17T00:31:27.584Z,985.30
2022-09-17T00:32:27.518Z,985.28
2022-09-17T00:33:27.514Z,985.32
2022-09-17T00:34:27.504Z,985.33
2022-09-17T00:35:27.577Z,985.27
2022-09-17T00:36:27.529Z,985.26
2022-09-17T00:37:28.069Z,985.32
2022-09-17T00:38:27.456Z,985.28
2022-09-17T00:39:27.482Z,985.24
2022-09-17T00:40:27.509Z,985.22
2022-09-17T00:41:27.651Z,985.21
2022-09-17T00:42:27.441Z,985.20
2022-09-17T00:43:27.427Z,985.14
2022-09-17T00:44:27.365Z,985.16
2022-09-17T00:45:27.373Z,985.16
2022-09-17T00:46:27.402Z,985.20
2022-09-17T00:47:27.434Z,985.19
2022-09-17T00:48:27.417Z,985.23
2022-09-17T00:49:27.381Z,985.20
2022-09-17T00:50:27.819Z,985.25
2022-09-17T00:51:27.324Z,985.21
2022-09-17T00:52:27.338Z,985.30
2022-09-17T00:53:27.349Z,985.29
2022-09-17T00:54:27.281Z,985.30
2022-09-17T00:55:27.308Z,985.25
2022-09-17T00:56:27.282Z,985.22
2022-09-17T00:57:27.368Z,985.20
2022-09-17T00:58:27.252Z,985.24
2022-09-17T00:59:27.242Z,985.23
2022-09-17T01:00:27.247Z,985.23
2022-09-17T01:01:27.296Z,985.22
2022-09-17T01:02:28.144Z,985.20
2022-09-17T01:03:27.211Z,985.21
2022-09-17T01:04:28.354Z,985.19
2022-09-17T01:05:27.255Z,985.22
2022-09-17T01:06:27.222Z,985.22
2022-09-17T01:07:27.151Z,985.34
2022-09-17T01:08:28.135Z,985.28
2022-09-17T01:09:27.150Z,985.32
2022-09-17T01:10:27.122Z,985.32
2022-09-17T01:11:27.095Z,985.29
2022-09-17T01:12:27.226Z,985.35
2022-09-17T01:13:27.757Z,985.30
2022-09-17T01:14:28.073Z,985.32
2022-09-17T01:15:29.491Z,985.29
2022-09-17T01:16:27.586Z,985.38
2022-09-17T01:17:27.099Z,985.39
2022-09-17T01:18:27.107Z,985.38
2022-09-17T01:19:27.072Z,985.40
2022-09-17T01:20:27.015Z,985.44
2022-09-17T01:21:27.047Z,985.43
2022-09-17T01:22:27.016Z,985.40
2022-09-17T01:23:27.063Z,985.41
2022-09-17T01:24:27.015Z,985.36
2022-09-17T01:25:26.996Z,985.42
2022-09-17T01:26:28.070Z,985.49
2022-09-17T01:27:26.971Z,985.43
2022-09-17T01:28:59.418Z,985.47
2022-09-17T01:29:27.075Z,985.40
2022-09-17T01:30:26.920Z,985.37
2022-09-17T01:31:26.956Z,985.34
2022-09-17T01:32:27.013Z,985.42
2022-09-17T01:33:26.880Z,985.45
2022-09-17T01:34:26.895Z,985.45
2022-09-17T01:35:26.888Z,985.38
2022-09-17T01:36:26.856Z,985.42
2022-09-17T01:37:30.606Z,985.35
2022-09-17T01:38:27.812Z,985.45
2022-09-17T01:39:26.907Z,985.47
2022-09-17T01:40:26.803Z,985.52
2022-09-17T01:41:26.764Z,985.47
2022-09-17T01:42:26.757Z,985.47
2022-09-17T01:43:26.736Z,985.49
2022-09-17T01:44:26.843Z,985.44
2022-09-17T01:45:26.740Z,985.54
2022-09-17T01:46:26.803Z,985.47
2022-09-17T01:47:26.778Z,985.52
2022-09-17T01:48:27.465Z,985.46
2022-09-17T01:49:26.694Z,985.48
2022-09-17T01:50:26.841Z,985.53
2022-09-17T01:51:26.708Z,985.50
2022-09-17T01:52:26.698Z,985.50
2022-09-17T01:53:26.660Z,985.53
2022-09-17T01:54:26.666Z,985.60
2022-09-17T01:55:26.721Z,985.59
2022-09-17T01:56:26.622Z,985.61
2022-09-17T01:57:26.638Z,985.58
2022-09-17T01:58:26.645Z,985.62
2022-09-17T01:59:26.669Z,985.60
2022-09-17T02:00:26.649Z,985.62
2022-09-17T02:01:26.614Z,985.65
2022-09-17T02:02:26.614Z,985.60
2022-09-17T02:03:26.568Z,985.62
2022-09-17T02:04:26.571Z,985.67
2022-09-17T02:05:26.604Z,985.67
2022-09-17T02:06:26.559Z,985.61
2022-09-17T02:07:26.515Z,985.61
2022-09-17T02:08:26.531Z,985.63
2022-09-17T02:09:26.541Z,985.61
2022-09-17T02:10:26.479Z,985.58
2022-09-17T02:11:26.482Z,985.63
2022-09-17T02:12:26.534Z,985.66
2022-09-17T02:13:26.515Z,985.58
2022-09-17T02:14:26.462Z,985.62
2022-09-17T02:15:26.522Z,985.60
2022-09-17T02:16:26.539Z,985.62
2022-09-17T02:17:26.395Z,985.56
2022-09-17T02:18:26.419Z,985.65
2022-09-17T02:19:26.401Z,985.68
2022-09-17T02:20:26.371Z,985.66
2022-09-17T02:21:26.396Z,985.65
2022-09-17T02:22:26.492Z,985.63
2022-09-17T02:23:26.344Z,985.64
2022-09-17T02:24:26.944Z,985.63
2022-09-17T02:25:26.330Z,985.61
2022-09-17T02:26:26.348Z,985.65
2022-09-17T02:27:26.336Z,985.64
2022-09-17T02:28:26.331Z,985.65
2022-09-17T02:29:26.409Z,985.66
2022-09-17T02:30:26.303Z,985.64
2022-09-17T02:31:26.328Z,985.62
2022-09-17T02:32:26.376Z,985.63
2022-09-17T02:33:26.228Z,985.59
2022-09-17T02:34:26.231Z,985.68
2022-09-17T02:35:26.263Z,985.64
2022-09-17T02:36:26.250Z,985.64
2022-09-17T02:37:26.227Z,985.63
2022-09-17T02:38:26.228Z,985.65
2022-09-17T02:39:26.220Z,985.68
2022-09-17T02:40:26.256Z,985.62
2022-09-17T02:41:26.205Z,985.60
2022-09-17T02:42:26.165Z,985.68
2022-09-17T02:43:26.148Z,985.64
2022-09-17T02:44:26.129Z,985.63
2022-09-17T02:45:26.149Z,985.62
2022-09-17T02:46:27.213Z,985.66
2022-09-17T02:47:26.106Z,985.57
2022-09-17T02:48:26.178Z,985.67
2022-09-17T02:49:26.105Z,985.65
2022-09-17T02:50:26.044Z,985.67
2022-09-17T02:51:26.076Z,985.64
2022-09-17T02:52:26.095Z,985.68
2022-09-17T02:53:26.037Z,985.63
2022-09-17T02:54:26.022Z,985.66
2022-09-17T02:55:26.037Z,985.61
2022-09-17T02:56:26.033Z,985.70
2022-09-17T02:57:26.197Z,985.72
2022-09-17T02:58:26.029Z,985.69
2022-09-17T02:59:26.004Z,985.71
2022-09-17T03:00:25.970Z,985.66
2022-09-17T03:01:26.009Z,985.64
2022-09-17T03:02:26.011Z,985.67
2022-09-17T03:03:25.941Z,985.63
2022-09-17T03:04:26.011Z,985.66
2022-09-17T03:05:25.937Z,985.63
2022-09-17T03:06:25.969Z,985.66
2022-09-17T03:07:26.205Z,985.63
2022-09-17T03:08:25.954Z,985.57
2022-09-17T03:09:25.862Z,985.59
2022-09-17T03:10:26.058Z,985.61
2022-09-17T03:11:25.925Z,985.60
2022-09-17T03:12:25.885Z,985.64
2022-09-17T03:13:25.830Z,985.64
2022-09-17T03:14:26.918Z,985.65
2022-09-17T03:15:25.850Z,985.66
2022-09-17T03:16:25.859Z,985.64
2022-09-17T03:17:25.802Z,985.59
2022-09-17T03:18:25.812Z,985.61
2022-09-17T03:19:25.846Z,985.70
2022-09-17T03:20:25.833Z,985.68
2022-09-17T03:21:25.822Z,985.69
2022-09-17T03:22:25.770Z,985.65
2022-09-17T03:23:25.810Z,985.70
2022-09-17T03:24:25.746Z,985.71
2022-09-17T03:25:25.746Z,985.66
2022-09-17T03:26:25.694Z,985.73
2022-09-17T03:27:25.694Z,985.70
2022-09-17T03:28:25.697Z,985.71
2022-09-17T03:29:25.890Z,985.68
2022-09-17T03:30:25.630Z,985.69
2022-09-17T03:31:25.674Z,985.73
2022-09-17T03:32:25.731Z,985.74
2022-09-17T03:33:25.666Z,985.66
2022-09-17T03:34:25.648Z,985.69
2022-09-17T03:35:25.654Z,985.66
2022-09-17T03:36:25.664Z,985.67
2022-09-17T03:37:29.868Z,985.76
2022-09-17T03:38:26.578Z,985.73
2022-09-17T03:39:25.649Z,985.72
2022-09-17T03:40:25.686Z,985.73
2022-09-17T03:41:25.563Z,985.74
2022-09-17T03:42:25.583Z,985.82
2022-09-17T03:43:25.630Z,985.79
2022-09-17T03:44:25.535Z,985.79
2022-09-17T03:45:25.516Z,985.77
2022-09-17T03:46:25.552Z,985.78
2022-09-17T03:47:25.467Z,985.79
2022-09-17T03:48:25.472Z,985.81
2022-09-17T03:49:25.575Z,985.85
2022-09-17T03:50:25.452Z,985.91
2022-09-17T03:51:25.419Z,985.84
2022-09-17T03:52:25.501Z,985.84
2022-09-17T03:53:26.023Z,985.87
2022-09-17T03:54:25.396Z,985.92
2022-09-17T03:55:25.600Z,985.90
2022-09-17T03:56:25.399Z,985.95
2022-09-17T03:57:25.399Z,985.88
2022-09-17T03:58:25.336Z,985.91
2022-09-17T03:59:25.364Z,985.93
2022-09-17T04:00:25.409Z,985.94
2022-09-17T04:01:25.418Z,985.99
2022-09-17T04:02:25.459Z,986.00
2022-09-17T04:03:25.400Z,986.03
2022-09-17T04:04:26.752Z,986.04
2022-09-17T04:05:25.431Z,986.11
2022-09-17T04:06:25.300Z,986.10
2022-09-17T04:07:25.274Z,986.12
2022-09-17T04:08:25.474Z,986.13
2022-09-17T04:09:25.873Z,986.14
2022-09-17T04:10:30.729Z,986.12
2022-09-17T04:11:25.282Z,986.18
2022-09-17T04:12:25.212Z,986.17
2022-09-17T04:13:25.216Z,986.16
2022-09-17T04:14:25.177Z,986.13
2022-09-17T04:15:25.213Z,986.22
2022-09-17T04:16:25.485Z,986.26
2022-09-17T04:17:25.158Z,986.24
2022-09-17T04:18:25.158Z,986.17
2022-09-17T04:19:25.238Z,986.28
2022-09-17T04:20:25.128Z,986.26
2022-09-17T04:21:25.118Z,986.26
2022-09-17T04:22:25.172Z,986.28
2022-09-17T04:23:25.092Z,986.29
2022-09-17T04:24:25.161Z,986.28
2022-09-17T04:25:25.130Z,986.24
2022-09-17T04:26:25.066Z,986.31
2022-09-17T04:27:25.113Z,986.34
2022-09-17T04:28:25.145Z,986.28
2022-09-17T04:29:25.026Z,986.36
2022-09-17T04:30:25.021Z,986.35
2022-09-17T04:31:25.171Z,986.33
2022-09-17T04:32:25.141Z,986.31
2022-09-17T04:33:25.001Z,986.33
2022-09-17T04:34:24.990Z,986.38
2022-09-17T04:35:25.119Z,986.41
2022-09-17T04:36:25.076Z,986.37
2022-09-17T04:37:24.914Z,986.43
2022-09-17T04:38:24.946Z,986.43
2022-09-17T04:39:24.918Z,986.36
2022-09-17T04:40:25.051Z,986.41
2022-09-17T04:41:24.942Z,986.49
2022-09-17T04:42:25.201Z,986.41
2022-09-17T04:43:24.878Z,986.48
2022-09-17T04:44:24.886Z,986.41
2022-09-17T04:45:24.989Z,986.49
2022-09-17T04:46:24.902Z,986.56
2022-09-17T04:47:25.478Z,986.50
2022-09-17T04:48:24.877Z,986.55
2022-09-17T04:49:24.849Z,986.55
2022-09-17T04:50:24.847Z,986.59
2022-09-17T04:51:24.799Z,986.62
2022-09-17T04:52:27.691Z,986.54
2022-09-17T04:53:25.901Z,986.61
2022-09-17T04:54:24.818Z,986.61
2022-09-17T04:55:24.782Z,986.66
2022-09-17T04:56:24.867Z,986.63
2022-09-17T04:57:24.747Z,986.58
2022-09-17T04:58:24.771Z,986.60
2022-09-17T04:59:25.383Z,986.63
2022-09-17T05:00:24.746Z,986.62
2022-09-17T05:01:24.772Z,986.65
2022-09-17T05:02:24.748Z,986.68
2022-09-17T05:03:24.680Z,986.61
2022-09-17T05:04:25.043Z,986.62
2022-09-17T05:05:24.667Z,986.59
2022-09-17T05:06:25.519Z,986.59
2022-09-17T05:07:24.726Z,986.64
2022-09-17T05:08:24.628Z,986.69
2022-09-17T05:09:24.631Z,986.64
2022-09-17T05:10:24.614Z,986.63
2022-09-17T05:11:24.586Z,986.69
2022-09-17T05:12:25.661Z,986.66
2022-09-17T05:13:24.568Z,986.60
2022-09-17T05:14:24.543Z,986.61
2022-09-17T05:15:24.777Z,986.65
2022-09-17T05:16:24.838Z,986.66
2022-09-17T05:17:24.520Z,986.69
2022-09-17T05:18:24.584Z,986.67
2022-09-17T05:19:24.503Z,986.65
2022-09-17T05:20:24.555Z,986.62
2022-09-17T05:21:24.692Z,986.71
2022-09-17T05:22:25.348Z,986.77
2022-09-17T05:23:24.464Z,986.74
2022-09-17T05:24:24.468Z,986.71
2022-09-17T05:25:24.453Z,986.71
2022-09-17T05:26:24.464Z,986.75
2022-09-17T05:27:24.420Z,986.80
2022-09-17T05:28:24.506Z,986.82
2022-09-17T05:29:24.425Z,986.84
2022-09-17T05:30:24.984Z,986.80
2022-09-17T05:31:24.512Z,986.83
2022-09-17T05:32:24.427Z,986.85
2022-09-17T05:33:24.365Z,986.90
2022-09-17T05:34:24.446Z,986.89
2022-09-17T05:35:24.424Z,986.88
2022-09-17T05:36:24.580Z,986.82
2022-09-17T05:37:24.385Z,986.90
2022-09-17T05:38:24.313Z,986.97
2022-09-17T05:39:24.405Z,986.96
2022-09-17T05:40:24.521Z,986.98
2022-09-17T05:41:24.333Z,987.05
2022-09-17T05:42:24.435Z,987.05
2022-09-17T05:43:24.303Z,987.03
2022-09-17T05:44:24.515Z,987.08
2022-09-17T05:45:24.608Z,987.08
2022-09-17T05:46:24.649Z,987.15
2022-09-17T05:47:24.333Z,986.99
2022-09-17T05:48:24.353Z,987.08
2022-09-17T05:49:24.325Z,987.04
2022-09-17T05:50:24.406Z,987.07
2022-09-17T05:51:24.546Z,987.04
2022-09-17T05:52:25.017Z,987.05
2022-09-17T05:53:25.753Z,987.02
2022-09-17T05:54:24.252Z,987.07
2022-09-17T05:55:24.465Z,987.11
2022-09-17T05:56:24.757Z,987.12
2022-09-17T05:57:24.189Z,987.16
2022-09-17T05:58:24.273Z,987.16
2022-09-17T05:59:24.279Z,987.17
2022-09-17T06:00:24.239Z,987.21
2022-09-17T06:01:24.366Z,987.18
2022-09-17T06:02:24.173Z,987.15
2022-09-17T06:03:24.586Z,987.21
2022-09-17T06:04:24.113Z,987.18
2022-09-17T06:05:24.614Z,987.16
2022-09-17T06:06:24.159Z,987.22
2022-09-17T06:07:24.554Z,987.16
2022-09-17T06:08:24.613Z,987.21
2022-09-17T06:09:24.139Z,987.19
2022-09-17T06:10:24.167Z,987.18
2022-09-17T06:11:24.158Z,987.19
2022-09-17T06:12:24.109Z,987.17
2022-09-17T06:13:24.078Z,987.16
2022-09-17T06:14:24.339Z,987.16
2022-09-17T06:15:24.363Z,987.22
2022-09-17T06:16:24.271Z,987.15
2022-09-17T06:17:24.235Z,987.17
2022-09-17T06:18:24.030Z,987.19
2022-09-17T06:19:24.076Z,987.20
2022-09-17T06:20:23.990Z,987.21
2022-09-17T06:21:23.962Z,987.24
2022-09-17T06:22:24.235Z,987.21
2022-09-17T06:23:23.935Z,987.19
2022-09-17T06:24:24.131Z,987.24
2022-09-17T06:25:23.978Z,987.19
2022-09-17T06:26:23.938Z,987.23
2022-09-17T06:27:24.298Z,987.16
2022-09-17T06:28:24.071Z,987.21
2022-09-17T06:29:30.924Z,987.21
2022-09-17T06:30:23.815Z,987.27
2022-09-17T06:31:24.694Z,987.24
2022-09-17T06:32:23.992Z,987.28
2022-09-17T06:33:23.869Z,987.26
2022-09-17T06:34:23.888Z,987.32
2022-09-17T06:35:24.700Z,987.31
2022-09-17T06:36:23.855Z,987.33
2022-09-17T06:37:23.904Z,987.30
2022-09-17T06:38:23.819Z,987.33
2022-09-17T06:39:23.776Z,987.34
2022-09-17T06:40:24.021Z,987.34
2022-09-17T06:41:23.672Z,987.30
2022-09-17T06:42:24.697Z,987.35
2022-09-17T06:43:23.711Z,987.38
2022-09-17T06:44:23.684Z,987.36
2022-09-17T06:45:23.688Z,987.33
2022-09-17T06:46:23.786Z,987.34
2022-09-17T06:47:23.620Z,987.39
2022-09-17T06:48:23.722Z,987.36
2022-09-17T06:49:23.636Z,987.36
2022-09-17T06:50:23.645Z,987.37
2022-09-17T06:51:23.625Z,987.27
2022-09-17T06:52:23.628Z,987.40
2022-09-17T06:53:25.082Z,987.35
2022-09-17T06:54:23.672Z,987.31
2022-09-17T06:55:24.432Z,987.32
2022-09-17T06:56:23.587Z,987.31
2022-09-17T06:57:23.636Z,987.26
2022-09-17T06:58:23.565Z,987.34
2022-09-17T06:59:23.541Z,987.31
2022-09-17T07:00:23.644Z,987.32
2022-09-17T07:01:23.567Z,987.35
2022-09-17T07:02:23.610Z,987.27
2022-09-17T07:03:23.563Z,987.36
2022-09-17T07:04:23.557Z,987.29
2022-09-17T07:05:23.448Z,987.40
2022-09-17T07:06:23.905Z,987.30
2022-09-17T07:07:23.665Z,987.37
2022-09-17T07:08:23.649Z,987.36
2022-09-17T07:09:24.365Z,987.27
2022-09-17T07:10:23.781Z,987.29
2022-09-17T07:11:23.453Z,987.31
2022-09-17T07:12:24.806Z,987.36
2022-09-17T07:13:23.452Z,987.29
2022-09-17T07:14:23.338Z,987.32
2022-09-17T07:15:23.556Z,987.33
2022-09-17T07:16:23.449Z,987.32
2022-09-17T07:17:23.359Z,987.32
2022-09-17T07:18:23.436Z,987.36
2022-09-17T07:19:23.318Z,987.32
2022-09-17T07:20:23.582Z,987.34
2022-09-17T07:21:23.318Z,987.33
2022-09-17T07:22:23.348Z,987.32
2022-09-17T07:23:23.309Z,987.42
2022-09-17T07:24:23.284Z,987.32
2022-09-17T07:25:23.282Z,987.32
2022-09-17T07:26:23.249Z,987.36
2022-09-17T07:27:23.218Z,987.35
2022-09-17T07:28:23.222Z,987.36
2022-09-17T07:29:23.205Z,987.36
2022-09-17T07:30:23.271Z,987.30
2022-09-17T07:31:23.234Z,987.31
2022-09-17T07:32:23.219Z,987.29
2022-09-17T07:33:25.975Z,987.30
2022-09-17T07:34:23.163Z,987.35
2022-09-17T07:35:23.128Z,987.33
2022-09-17T07:36:23.221Z,987.32
2022-09-17T07:37:55.655Z,987.37
2022-09-17T07:38:23.109Z,987.36
2022-09-17T07:39:23.161Z,987.33
2022-09-17T07:40:24.230Z,987.36
2022-09-17T07:41:23.095Z,987.40
2022-09-17T07:42:23.033Z,987.40
2022-09-17T07:43:23.076Z,987.45
2022-09-17T07:44:23.084Z,987.40
2022-09-17T07:45:23.093Z,987.36
2022-09-17T07:46:23.054Z,987.43
2022-09-17T07:47:23.031Z,987.36
2022-09-17T07:48:23.425Z,987.30
2022-09-17T07:49:23.111Z,987.30
2022-09-17T07:50:23.047Z,987.32
2022-09-17T07:51:22.962Z,987.33
2022-09-17T07:52:23.041Z,987.32
2022-09-17T07:53:22.969Z,987.36
2022-09-17T07:54:23.939Z,987.39
2022-09-17T07:55:23.835Z,987.33
2022-09-17T07:56:22.974Z,987.36
2022-09-17T07:57:23.900Z,987.40
2022-09-17T07:58:22.914Z,987.42
2022-09-17T07:59:22.903Z,987.47
2022-09-17T08:00:22.918Z,987.43
2022-09-17T08:01:23.010Z,987.39
2022-09-17T08:02:24.457Z,987.42
2022-09-17T08:03:23.900Z,987.38
2022-09-17T08:04:22.855Z,987.35
2022-09-17T08:05:22.852Z,987.35
2022-09-17T08:06:22.824Z,987.41
2022-09-17T08:07:22.842Z,987.33
2022-09-17T08:08:22.880Z,987.40
2022-09-17T08:09:22.872Z,987.31
2022-09-17T08:10:22.821Z,987.38
2022-09-17T08:11:44.486Z,987.37
2022-09-17T08:12:24.827Z,987.42
2022-09-17T08:13:22.807Z,987.47
2022-09-17T08:14:26.991Z,987.42
2022-09-17T08:15:24.797Z,987.38
2022-09-17T08:16:22.756Z,987.39
2022-09-17T08:17:23.530Z,987.36
2022-09-17T08:18:22.709Z,987.41
2022-09-17T08:19:22.871Z,987.40
2022-09-17T08:20:22.723Z,987.38
2022-09-17T08:21:23.029Z,987.34
2022-09-17T08:22:22.662Z,987.37
2022-09-17T08:23:22.700Z,987.40
2022-09-17T08:24:22.737Z,987.40
2022-09-17T08:25:23.151Z,987.34
2022-09-17T08:26:22.617Z,987.37
2022-09-17T08:27:23.042Z,987.34
2022-09-17T08:28:22.715Z,987.35
2022-09-17T08:29:22.840Z,987.36
2022-09-17T08:30:23.584Z,987.42
2022-09-17T08:31:22.623Z,987.33
2022-09-17T08:32:22.568Z,987.32
2022-09-17T08:33:22.604Z,987.30
2022-09-17T08:34:22.541Z,987.30
2022-09-17T08:35:22.551Z,987.34
2022-09-17T08:36:22.539Z,987.22
2022-09-17T08:37:22.555Z,987.31
2022-09-17T08:38:23.571Z,987.26
2022-09-17T08:39:23.393Z,987.23
2022-09-17T08:40:24.715Z,987.18
2022-09-17T08:41:23.939Z,987.23
2022-09-17T08:42:25.408Z,987.31
2022-09-17T08:43:22.540Z,987.30
2022-09-17T08:44:22.663Z,987.28
2022-09-17T08:45:22.503Z,987.22
2022-09-17T08:46:22.581Z,987.24
2022-09-17T08:47:22.480Z,987.21
2022-09-17T08:48:22.681Z,987.20
2022-09-17T08:49:22.479Z,987.23
2022-09-17T08:50:22.480Z,987.22
2022-09-17T08:51:22.528Z,987.26
2022-09-17T08:52:22.480Z,987.28
2022-09-17T08:53:22.409Z,987.25
2022-09-17T08:54:22.392Z,987.25
2022-09-17T08:55:22.480Z,987.22
2022-09-17T08:56:22.536Z,987.27
2022-09-17T08:57:22.345Z,987.29
2022-09-17T08:58:22.695Z,987.29
2022-09-17T08:59:23.741Z,987.32
2022-09-17T09:00:22.365Z,987.24
2022-09-17T09:01:22.646Z,987.32
2022-09-17T09:02:22.600Z,987.27
2022-09-17T09:03:22.757Z,987.35
2022-09-17T09:04:22.288Z,987.33
2022-09-17T09:05:22.405Z,987.28
2022-09-17T09:06:22.307Z,987.31
2022-09-17T09:07:22.293Z,987.32
2022-09-17T09:08:22.282Z,987.30
2022-09-17T09:09:22.266Z,987.30
2022-09-17T09:10:22.435Z,987.41
2022-09-17T09:11:22.245Z,987.35
2022-09-17T09:12:22.417Z,987.44
2022-09-17T09:13:22.235Z,987.35
2022-09-17T09:14:22.218Z,987.46
2022-09-17T09:15:22.234Z,987.49
2022-09-17T09:16:22.650Z,987.45
2022-09-17T09:17:22.124Z,987.48
2022-09-17T09:18:22.264Z,987.45
2022-09-17T09:19:22.119Z,987.50
2022-09-17T09:20:22.074Z,987.49
2022-09-17T09:21:22.012Z,987.51
2022-09-17T09:22:23.429Z,987.46
2022-09-17T09:23:22.039Z,987.50
2022-09-17T09:24:22.012Z,987.46
2022-09-17T09:25:22.041Z,987.51
2022-09-17T09:26:21.975Z,987.48
2022-09-17T09:27:21.984Z,987.51
2022-09-17T09:28:22.050Z,987.49
2022-09-17T09:29:22.021Z,987.52
2022-09-17T09:30:21.954Z,987.53
2022-09-17T09:31:22.320Z,987.52
2022-09-17T09:32:22.200Z,987.55
2022-09-17T09:33:21.985Z,987.47
2022-09-17T09:34:21.941Z,987.48
2022-09-17T09:35:21.876Z,987.46
2022-09-17T09:36:22.345Z,987.44
2022-09-17T09:37:21.947Z,987.51
2022-09-17T09:38:21.864Z,987.47
2022-09-17T09:39:21.898Z,987.53
2022-09-17T09:40:21.954Z,987.53
2022-09-17T09:41:21.901Z,987.49
2022-09-17T09:42:22.513Z,987.47
2022-09-17T09:43:21.801Z,987.44
2022-09-17T09:44:21.911Z,987.44
2022-09-17T09:45:21.797Z,987.41
2022-09-17T09:46:21.818Z,987.43
2022-09-17T09:47:21.793Z,987.52
2022-09-17T09:48:21.817Z,987.53
2022-09-17T09:49:21.853Z,987.51
2022-09-17T09:50:21.785Z,987.55
2022-09-17T09:51:21.813Z,987.60
2022-09-17T09:52:21.722Z,987.56
2022-09-17T09:53:21.861Z,987.63
2022-09-17T09:54:21.737Z,987.65
2022-09-17T09:55:26.419Z,987.64
2022-09-17T09:56:23.215Z,987.58
2022-09-17T09:57:21.757Z,987.67
2022-09-17T09:58:21.850Z,987.64
2022-09-17T09:59:21.673Z,987.67
2022-09-17T10:00:21.737Z,987.58
2022-09-17T10:01:21.684Z,987.60
2022-09-17T10:02:21.693Z,987.54
2022-09-17T10:03:21.605Z,987.48
2022-09-17T10:04:22.013Z,987.53
2022-09-17T10:05:21.626Z,987.61
2022-09-17T10:06:21.590Z,987.61
2022-09-17T10:07:21.611Z,987.60
2022-09-17T10:08:21.543Z,987.58
2022-09-17T10:09:21.701Z,987.55
2022-09-17T10:10:21.541Z,987.55
2022-09-17T10:11:21.523Z,987.61
2022-09-17T10:12:21.517Z,987.56
2022-09-17T10:13:21.770Z,987.50
2022-09-17T10:14:21.521Z,987.56
2022-09-17T10:15:23.355Z,987.50
2022-09-17T10:16:21.640Z,987.44
2022-09-17T10:17:23.377Z,987.48
2022-09-17T10:18:21.579Z,987.45
2022-09-17T10:19:21.518Z,987.46
2022-09-17T10:20:23.261Z,987.54
2022-09-17T10:21:22.743Z,987.50
2022-09-17T10:22:22.098Z,987.49
2022-09-17T10:23:21.542Z,987.49
2022-09-17T10:24:24.017Z,987.43
2022-09-17T10:25:21.403Z,987.51
2022-09-17T10:26:21.440Z,987.44
2022-09-17T10:27:21.480Z,987.46
2022-09-17T10:29:42.429Z,987.47
2022-09-17T10:29:43.988Z,987.42
2022-09-17T10:30:44.003Z,987.44
2022-09-17T10:31:44.091Z,987.46
2022-09-17T10:32:44.227Z,987.43
2022-09-17T10:33:43.920Z,987.34
2022-09-17T10:34:43.963Z,987.39
2022-09-17T10:35:44.103Z,987.45
2022-09-17T10:36:43.880Z,987.46
2022-09-17T10:37:43.871Z,987.35
2022-09-17T10:38:45.340Z,987.37
2022-09-17T10:39:43.898Z,987.43
2022-09-17T10:40:44.875Z,987.38
2022-09-17T10:41:44.204Z,987.43
2022-09-17T10:42:43.875Z,987.34
2022-09-17T10:43:43.836Z,987.41
2022-09-17T10:44:44.163Z,987.37
2022-09-17T10:45:43.939Z,987.34
2022-09-17T10:46:43.832Z,987.36
2022-09-17T10:47:43.860Z,987.40
2022-09-17T10:48:43.892Z,987.41
2022-09-17T10:49:44.007Z,987.49
2022-09-17T10:50:43.896Z,987.30
2022-09-17T10:51:43.836Z,987.30
2022-09-17T10:52:43.700Z,987.40
2022-09-17T10:53:43.818Z,987.27
2022-09-17T10:54:44.271Z,987.31
2022-09-17T10:55:44.332Z,987.35
2022-09-17T10:56:43.723Z,987.33
2022-09-17T10:57:43.644Z,987.33
2022-09-17T10:58:43.752Z,987.35
2022-09-17T11:00:16.116Z,987.36
2022-09-17T11:00:43.780Z,987.34
2022-09-17T11:01:43.734Z,987.34
2022-09-17T11:02:43.786Z,987.31
2022-09-17T11:03:43.759Z,987.21
2022-09-17T11:04:43.544Z,987.25
2022-09-17T11:05:43.509Z,987.29
2022-09-17T11:06:43.452Z,987.14
2022-09-17T11:07:43.466Z,987.26
2022-09-17T11:08:43.492Z,987.21
2022-09-17T11:09:43.452Z,987.29
2022-09-17T11:10:43.463Z,987.24
2022-09-17T11:11:43.464Z,987.33
2022-09-17T11:12:43.430Z,987.37
2022-09-17T11:13:43.385Z,987.27
2022-09-17T11:14:43.412Z,987.29
2022-09-17T11:16:17.026Z,987.45
2022-09-17T11:16:44.574Z,987.41
2022-09-17T11:17:43.565Z,987.41
2022-09-17T11:18:43.361Z,987.48
2022-09-17T11:19:43.558Z,987.48
2022-09-17T11:20:43.312Z,987.51
2022-09-17T11:21:44.861Z,987.44
2022-09-17T11:22:44.025Z,987.39
2022-09-17T11:23:43.672Z,987.41
2022-09-17T11:24:43.249Z,987.46
2022-09-17T11:25:44.046Z,987.39
2022-09-17T11:26:44.545Z,987.46
2022-09-17T11:27:43.240Z,987.36
2022-09-17T11:28:43.378Z,987.38
2022-09-17T11:29:43.726Z,987.33
2022-09-17T11:30:43.201Z,987.33
2022-09-17T11:31:43.302Z,987.34
2022-09-17T11:32:43.582Z,987.38
2022-09-17T11:33:43.772Z,987.29
2022-09-17T11:34:46.540Z,987.33
2022-09-17T11:35:43.154Z,987.33
2022-09-17T11:36:43.578Z,987.29
2022-09-17T11:37:43.165Z,987.28
2022-09-17T11:38:44.315Z,987.22
2022-09-17T11:39:43.153Z,987.23
2022-09-17T11:40:45.161Z,987.19
2022-09-17T11:41:43.141Z,987.17
2022-09-17T11:42:44.018Z,987.19
2022-09-17T11:43:43.090Z,987.03
2022-09-17T11:44:43.312Z,987.12
2022-09-17T11:45:43.022Z,987.10
2022-09-17T11:46:43.082Z,987.10
2022-09-17T11:47:42.998Z,987.10
2022-09-17T11:48:42.955Z,987.05
2022-09-17T11:49:42.962Z,987.10
2022-09-17T11:50:43.134Z,987.10
2022-09-17T11:51:42.943Z,987.11
2022-09-17T11:52:42.958Z,987.00
2022-09-17T11:53:42.895Z,987.04
2022-09-17T11:54:42.967Z,987.06
2022-09-17T11:55:42.946Z,987.10
2022-09-17T11:56:43.288Z,986.98
2022-09-17T11:57:42.867Z,986.96
2022-09-17T11:58:42.934Z,986.92
2022-09-17T11:59:42.933Z,986.98
2022-09-17T12:00:42.850Z,987.03
2022-09-17T12:01:42.873Z,986.96
2022-09-17T12:02:43.585Z,987.08
2022-09-17T12:03:42.870Z,987.05
2022-09-17T12:04:42.802Z,987.12
2022-09-17T12:05:42.852Z,987.16
2022-09-17T12:06:42.843Z,987.19
2022-09-17T12:07:42.780Z,987.29
2022-09-17T12:08:42.863Z,987.25
2022-09-17T12:09:42.796Z,987.30
2022-09-17T12:10:42.856Z,987.30
2022-09-17T12:11:42.703Z,987.23
2022-09-17T12:12:49.973Z,987.24
2022-09-17T12:13:44.711Z,987.15
2022-09-17T12:14:42.663Z,987.15
2022-09-17T12:15:42.835Z,987.21
2022-09-17T12:16:42.711Z,987.16
2022-09-17T12:17:42.780Z,987.16
2022-09-17T12:18:42.636Z,987.05
2022-09-17T12:19:42.656Z,987.06
2022-09-17T12:20:42.611Z,987.05
2022-09-17T12:21:42.640Z,987.06
2022-09-17T12:22:42.695Z,987.04
2022-09-17T12:23:42.592Z,986.98
2022-09-17T12:24:42.577Z,986.99
2022-09-17T12:25:43.533Z,986.99
2022-09-17T12:26:42.552Z,986.88
2022-09-17T12:27:42.545Z,986.88